This is the latest recevied weather packets stored in our database for station/object DD6UBW. If no packets are shown the sender has not sent any weather packets the latest 10 day(s).
| Time | Temp. | Humidity | Pressure | Rain* | Wind** | Luminosity | Snow |
|---|---|---|---|---|---|---|---|
| 1777469401 | 14.44° C | 30% | 1029.6 hPa | 0 mm | - | - | - |
| 1777467601 | 14.44° C | 29% | 1029.6 hPa | 0 mm | - | - | - |
| 1777465802 | 14.44° C | 31% | 1029.6 hPa | 0 mm | - | - | - |
| 1777464001 | 13.33° C | 30% | 1029.6 hPa | 0 mm | - | - | - |
| 1777462201 | 13.89° C | 31% | 1029.6 hPa | 0 mm | - | - | - |
| 1777460401 | 13.33° C | 30% | 1029.6 hPa | 0 mm | - | - | - |
| 1777458600 | 12.78° C | 29% | 1029.6 hPa | 0 mm | - | - | - |
| 1777456801 | 12.22° C | 29% | 1029.6 hPa | 0 mm | - | - | - |
| 1777455001 | 12.22° C | 29% | 1029.6 hPa | 0 mm | - | - | - |
| 1777453201 | 11.67° C | 31% | 1029.6 hPa | 0 mm | - | - | - |
| 1777451401 | 11.67° C | 31% | 1029.6 hPa | 0 mm | - | - | - |
| 1777449601 | 11.11° C | 32% | 1029.6 hPa | 0 mm | - | - | - |
| 1777447800 | 10° C | 37% | 1029.6 hPa | 0 mm | - | - | - |
| 1777446002 | 9.44° C | 39% | 1029.6 hPa | 0 mm | - | - | - |
| 1777444201 | 8.33° C | 44% | 1029.6 hPa | 0 mm | - | - | - |
| 1777442401 | 7.78° C | 51% | 1028.6 hPa | 0 mm | - | - | - |
| 1777440601 | 5° C | 59% | 1028.6 hPa | 0 mm | - | - | - |
| 1777438801 | 4.44° C | 61% | 1028.6 hPa | 0 mm | - | - | - |
| 1777437001 | 3.33° C | 64% | 1027.6 hPa | 0 mm | - | - | - |
| 1777435201 | 2.78° C | 65% | 1027.6 hPa | 0 mm | - | - | - |
| 1777433402 | 2.22° C | 66% | 1027.6 hPa | 0 mm | - | - | - |
| 1777431600 | 2.78° C | 64% | 1027.6 hPa | 0 mm | - | - | - |
| 1777429801 | 2.78° C | 64% | 1027.6 hPa | 0 mm | - | - | - |
| 1777428001 | 2.78° C | 65% | 1027.6 hPa | 0 mm | - | - | - |
| 1777426201 | 3.33° C | 63% | 1027.6 hPa | 0 mm | - | - | - |
* Rain since midnight (hover to see other rain measurements)
** Current wind speed in m/s (hover to see current wind gust speed)